Back to Top

Language: 

My Weather Underground Personal Weather Station Historical Data with Graphs...

Delerius Weather Station Historical Data
Daily Summary for April 30, 2017 Units:  Metric    English   Both
« Previous Day
Next Day »
Daily Weekly Monthly Yearly Custom
  High: Low: Average:
Temperature: 16.2 °C 7.3 °C 11.3 °C
Dew Point: 7.5 °C 3.7 °C 5.9 °C
Humidity: 84 % 46 % 71 %
Wind Speed: 25.7 km/h 0 km/h 11.3 km/h
Wind Gust: 43.5 km/h - -
Wind:- - ESE
Pressure: 1010.4 hPa 999.9 hPa -
Precipitation: 0 mm    
Historical Graphs
 
 
Tabular Data for April 30, 2017
Time Temperature Dew Point Pressure Wind Wind Speed Wind Gust Humidity Rainfall Rate (Hourly) solar Conditions
00:01 8.5 °C 5.9 °C 1010.4 hPa SE 9.7 km/h 17.7 km/h 84 % 0 mm 0 W/m2
00:06 8.5 °C 5.9 °C 1010.4 hPa SE 11.3 km/h 20.9 km/h 84 % 0 mm 0 W/m2
00:11 8.5 °C 5.8 °C 1010.4 hPa SE 11.3 km/h 20.9 km/h 83 % 0 mm 0 W/m2
00:16 8.5 °C 5.8 °C 1010.4 hPa SE 9.7 km/h 17.7 km/h 83 % 0 mm 0 W/m2
00:21 8.4 °C 5.5 °C 1010.4 hPa SE 9.7 km/h 16.1 km/h 82 % 0 mm 0 W/m2
00:26 8.4 °C 5.5 °C 1010.4 hPa SE 9.7 km/h 16.1 km/h 82 % 0 mm 0 W/m2
00:31 8.4 °C 5.5 °C 1010 hPa SE 8 km/h 14.5 km/h 82 % 0 mm 0 W/m2
00:36 8.3 °C 5.4 °C 1010 hPa SE 8 km/h 14.5 km/h 82 % 0 mm 0 W/m2
00:41 8.3 °C 5.4 °C 1010 hPa SE 8 km/h 14.5 km/h 82 % 0 mm 0 W/m2
00:46 8.3 °C 5.4 °C 1010 hPa SE 8 km/h 14.5 km/h 82 % 0 mm 0 W/m2
00:51 8.2 °C 5.3 °C 1010 hPa SE 6.4 km/h 12.9 km/h 82 % 0 mm 0 W/m2
00:56 8.1 °C 5.2 °C 1010 hPa SE 8 km/h 12.9 km/h 82 % 0 mm 0 W/m2
01:01 8.1 °C 5.2 °C 1010 hPa SE 9.7 km/h 16.1 km/h 82 % 0 mm 0 W/m2
01:06 8.1 °C 5.2 °C 1010 hPa SE 9.7 km/h 16.1 km/h 82 % 0 mm 0 W/m2
01:11 7.9 °C 5 °C 1010 hPa SE 9.7 km/h 16.1 km/h 82 % 0 mm 0 W/m2
01:17 7.9 °C 5 °C 1010 hPa SE 9.7 km/h 16.1 km/h 82 % 0 mm 0 W/m2
01:22 7.8 °C 4.9 °C 1009.7 hPa SE 8 km/h 14.5 km/h 82 % 0 mm 0 W/m2
01:27 7.7 °C 4.8 °C 1009.7 hPa SE 6.4 km/h 11.3 km/h 82 % 0 mm 0 W/m2
01:32 7.7 °C 4.8 °C 1009.7 hPa SE 8 km/h 12.9 km/h 82 % 0 mm 0 W/m2
01:37 7.6 °C 4.7 °C 1009.7 hPa SE 8 km/h 12.9 km/h 82 % 0 mm 0 W/m2
01:42 7.5 °C 4.8 °C 1009.7 hPa SE 8 km/h 12.9 km/h 83 % 0 mm 0 W/m2
01:47 7.4 °C 4.7 °C 1009.7 hPa SE 8 km/h 12.9 km/h 83 % 0 mm 0 W/m2
01:52 7.4 °C 4.7 °C 1009.4 hPa SE 8 km/h 12.9 km/h 83 % 0 mm 0 W/m2
01:57 7.3 °C 4.6 °C 1009.4 hPa SE 8 km/h 14.5 km/h 83 % 0 mm 0 W/m2
02:02 7.3 °C 4.6 °C 1009.4 hPa SE 8 km/h 14.5 km/h 83 % 0 mm 0 W/m2
02:07 7.3 °C 4.8 °C 1009.4 hPa SE 9.7 km/h 17.7 km/h 84 % 0 mm 0 W/m2
02:12 7.3 °C 4.6 °C 1009.4 hPa SE 11.3 km/h 20.9 km/h 83 % 0 mm 0 W/m2
02:15 7.4 °C 4.7 °C 1009.4 hPa SE 11.3 km/h 20.9 km/h 83 % 0 mm 0 W/m2
02:20 7.4 °C 4.7 °C 1009.4 hPa SE 11.3 km/h 20.9 km/h 83 % 0 mm 0 W/m2
02:25 7.4 °C 4.7 °C 1009.4 hPa SE 9.7 km/h 16.1 km/h 83 % 0 mm 0 W/m2
02:30 7.4 °C 4.7 °C 1009.4 hPa SE 8 km/h 17.7 km/h 83 % 0 mm 0 W/m2
02:35 7.4 °C 4.7 °C 1009 hPa SE 9.7 km/h 17.7 km/h 83 % 0 mm 0 W/m2
02:40 7.4 °C 4.7 °C 1009 hPa SE 8 km/h 12.9 km/h 83 % 0 mm 0 W/m2
02:45 7.5 °C 4.8 °C 1009 hPa SE 9.7 km/h 19.3 km/h 83 % 0 mm 0 W/m2
02:50 7.5 °C 4.8 °C 1009 hPa SE 11.3 km/h 20.9 km/h 83 % 0 mm 0 W/m2
02:55 7.5 °C 4.6 °C 1009 hPa SE 9.7 km/h 20.9 km/h 82 % 0 mm 0 W/m2
03:00 7.5 °C 4.6 °C 1009 hPa ESE 8 km/h 14.5 km/h 82 % 0 mm 0 W/m2
03:05 7.5 °C 4.6 °C 1009 hPa SE 8 km/h 16.1 km/h 82 % 0 mm 0 W/m2
03:10 7.6 °C 4.7 °C 1009 hPa SE 9.7 km/h 16.1 km/h 82 % 0 mm 0 W/m2
03:15 7.6 °C 4.7 °C 1009 hPa SE 11.3 km/h 19.3 km/h 82 % 0 mm 0 W/m2
03:20 7.7 °C 4.8 °C 1009 hPa SE 11.3 km/h 19.3 km/h 82 % 0 mm 0 W/m2
03:25 7.7 °C 4.7 °C 1008.7 hPa SE 11.3 km/h 19.3 km/h 81 % 0 mm 0 W/m2
03:30 7.7 °C 4.7 °C 1008.7 hPa SE 11.3 km/h 17.7 km/h 81 % 0 mm 0 W/m2
03:35 7.8 °C 4.7 °C 1008.7 hPa SE 9.7 km/h 17.7 km/h 81 % 0 mm 0 W/m2
03:40 7.8 °C 4.7 °C 1008.7 hPa SE 8 km/h 17.7 km/h 81 % 0 mm 0 W/m2
03:46 7.7 °C 4.7 °C 1008.7 hPa SE 6.4 km/h 12.9 km/h 81 % 0 mm 0 W/m2
03:51 7.7 °C 4.7 °C 1008.7 hPa SE 6.4 km/h 11.3 km/h 81 % 0 mm 0 W/m2
03:56 7.7 °C 4.7 °C 1008.4 hPa SE 6.4 km/h 11.3 km/h 81 % 0 mm 0 W/m2
04:01 7.6 °C 4.6 °C 1008.4 hPa SE 6.4 km/h 11.3 km/h 81 % 0 mm 0 W/m2
04:06 7.6 °C 4.6 °C 1008.4 hPa SE 6.4 km/h 11.3 km/h 81 % 0 mm 0 W/m2
04:11 7.6 °C 4.6 °C 1008.4 hPa SE 4.8 km/h 11.3 km/h 81 % 0 mm 0 W/m2
04:16 7.6 °C 4.6 °C 1008.4 hPa SE 4.8 km/h 16.1 km/h 81 % 0 mm 0 W/m2
04:21 7.7 °C 4.7 °C 1008.4 hPa SE 8 km/h 16.1 km/h 81 % 0 mm 0 W/m2
04:26 7.7 °C 4.7 °C 1008.4 hPa SE 8 km/h 14.5 km/h 81 % 0 mm 0 W/m2
04:31 7.8 °C 4.7 °C 1008.4 hPa SE 8 km/h 14.5 km/h 81 % 0 mm 0 W/m2
04:36 7.8 °C 4.7 °C 1008.4 hPa SE 9.7 km/h 19.3 km/h 81 % 0 mm 0 W/m2
04:41 7.8 °C 4.7 °C 1008 hPa SE 9.7 km/h 19.3 km/h 81 % 0 mm 0 W/m2
04:46 7.8 °C 4.7 °C 1008 hPa SE 8 km/h 16.1 km/h 81 % 0 mm 0 W/m2
04:51 7.8 °C 4.7 °C 1008 hPa SE 8 km/h 14.5 km/h 81 % 0 mm 0 W/m2
04:56 7.7 °C 4.7 °C 1008 hPa ESE 9.7 km/h 14.5 km/h 81 % 0 mm 0 W/m2
05:01 7.7 °C 4.7 °C 1008 hPa ESE 8 km/h 14.5 km/h 81 % 0 mm 0 W/m2
05:06 7.7 °C 4.8 °C 1008 hPa SE 8 km/h 16.1 km/h 82 % 0 mm 0 W/m2
05:11 7.6 °C 4.7 °C 1008 hPa ESE 8 km/h 16.1 km/h 82 % 0 mm 0 W/m2
05:16 7.6 °C 4.9 °C 1008 hPa ESE 8 km/h 20.9 km/h 83 % 0 mm 0 W/m2
05:21 7.6 °C 4.9 °C 1008 hPa SE 8 km/h 20.9 km/h 83 % 0 mm 0 W/m2
05:26 7.6 °C 4.9 °C 1008 hPa SE 9.7 km/h 17.7 km/h 83 % 0 mm 5 W/m2
05:27 7.6 °C 4.9 °C 1008 hPa SE 9.7 km/h 17.7 km/h 83 % 0 mm 5 W/m2
05:32 7.6 °C 4.9 °C 1008 hPa SE 9.7 km/h 17.7 km/h 83 % 0 mm 5 W/m2
05:37 7.6 °C 4.9 °C 1008 hPa ESE 9.7 km/h 20.9 km/h 83 % 0 mm 7 W/m2
05:42 7.6 °C 4.9 °C 1007.7 hPa ESE 8 km/h 20.9 km/h 83 % 0 mm 9 W/m2
05:47 7.6 °C 4.9 °C 1007.7 hPa ESE 6.4 km/h 14.5 km/h 83 % 0 mm 11 W/m2
05:53 7.6 °C 4.9 °C 1007.7 hPa ESE 8 km/h 16.1 km/h 83 % 0 mm 9 W/m2
05:58 7.6 °C 4.9 °C 1007.7 hPa ESE 8 km/h 16.1 km/h 83 % 0 mm 9 W/m2
06:03 7.6 °C 4.9 °C 1007.7 hPa ESE 9.7 km/h 19.3 km/h 83 % 0 mm 12 W/m2
06:08 7.6 °C 4.9 °C 1007.7 hPa ESE 8 km/h 19.3 km/h 83 % 0 mm 12 W/m2
06:13 7.6 °C 4.9 °C 1007.3 hPa ESE 6.4 km/h 11.3 km/h 83 % 0 mm 14 W/m2
06:18 7.6 °C 4.9 °C 1007.7 hPa ESE 6.4 km/h 12.9 km/h 83 % 0 mm 25 W/m2
06:23 7.6 °C 4.9 °C 1007.7 hPa ESE 4.8 km/h 12.9 km/h 83 % 0 mm 28 W/m2
06:28 7.6 °C 4.9 °C 1007.3 hPa ESE 3.2 km/h 8 km/h 83 % 0 mm 33 W/m2
06:33 7.6 °C 4.9 °C 1007.7 hPa ESE 4.8 km/h 9.7 km/h 83 % 0 mm 33 W/m2
06:38 7.6 °C 4.9 °C 1007.3 hPa ESE 6.4 km/h 16.1 km/h 83 % 0 mm 30 W/m2
06:43 7.6 °C 4.9 °C 1007.3 hPa SE 6.4 km/h 16.1 km/h 83 % 0 mm 35 W/m2
06:48 7.6 °C 4.9 °C 1007.3 hPa SE 4.8 km/h 14.5 km/h 83 % 0 mm 58 W/m2
06:53 7.7 °C 4.8 °C 1007.3 hPa ESE 6.4 km/h 16.1 km/h 82 % 0 mm 76 W/m2
06:58 7.8 °C 4.9 °C 1007.3 hPa ESE 8 km/h 16.1 km/h 82 % 0 mm 95 W/m2
07:03 7.9 °C 5 °C 1007.3 hPa ESE 4.8 km/h 12.9 km/h 82 % 0 mm 79 W/m2
07:08 7.9 °C 4.8 °C 1007.3 hPa ESE 4.8 km/h 9.7 km/h 81 % 0 mm 72 W/m2
07:13 8 °C 4.9 °C 1007.3 hPa SE 4.8 km/h 11.3 km/h 81 % 0 mm 67 W/m2
07:18 8 °C 4.9 °C 1007.3 hPa SE 4.8 km/h 12.9 km/h 81 % 0 mm 91 W/m2
07:23 8.1 °C 4.8 °C 1007.3 hPa ESE 8 km/h 17.7 km/h 80 % 0 mm 90 W/m2
07:28 8.1 °C 4.8 °C 1007 hPa ESE 8 km/h 17.7 km/h 80 % 0 mm 93 W/m2
07:33 8.1 °C 4.8 °C 1007 hPa SE 8 km/h 19.3 km/h 80 % 0 mm 114 W/m2
07:38 8.2 °C 4.9 °C 1007 hPa SE 9.7 km/h 19.3 km/h 80 % 0 mm 137 W/m2
07:43 8.2 °C 4.9 °C 1007 hPa SE 9.7 km/h 16.1 km/h 80 % 0 mm 114 W/m2
07:48 8.3 °C 5.1 °C 1007 hPa SE 8 km/h 16.1 km/h 80 % 0 mm 121 W/m2
07:53 8.4 °C 5.2 °C 1007 hPa ESE 9.7 km/h 16.1 km/h 80 % 0 mm 135 W/m2
07:58 8.5 °C 5.1 °C 1007 hPa ESE 9.7 km/h 17.7 km/h 79 % 0 mm 149 W/m2
08:03 8.6 °C 5.2 °C 1007 hPa SE 9.7 km/h 17.7 km/h 79 % 0 mm 158 W/m2
08:08 8.7 °C 5.1 °C 1006.7 hPa ESE 11.3 km/h 19.3 km/h 78 % 0 mm 174 W/m2
08:14 8.8 °C 5.2 °C 1006.7 hPa ESE 11.3 km/h 20.9 km/h 78 % 0 mm 209 W/m2
08:19 8.9 °C 5.4 °C 1006.7 hPa ESE 9.7 km/h 20.9 km/h 79 % 0 mm 200 W/m2
08:24 9.1 °C 5.4 °C 1006.7 hPa ESE 9.7 km/h 17.7 km/h 78 % 0 mm 163 W/m2
08:29 9.2 °C 5.6 °C 1006.3 hPa ESE 9.7 km/h 17.7 km/h 78 % 0 mm 178 W/m2
08:34 9.3 °C 5.4 °C 1006.3 hPa ESE 11.3 km/h 22.5 km/h 77 % 0 mm 216 W/m2
08:39 9.4 °C 5.6 °C 1006.3 hPa ESE 12.9 km/h 25.7 km/h 77 % 0 mm 276 W/m2
08:44 9.6 °C 5.6 °C 1006.3 hPa ESE 12.9 km/h 25.7 km/h 76 % 0 mm 229 W/m2
08:49 9.7 °C 5.7 °C 1006 hPa ESE 11.3 km/h 22.5 km/h 76 % 0 mm 250 W/m2
08:54 9.8 °C 5.6 °C 1006 hPa ESE 12.9 km/h 20.9 km/h 75 % 0 mm 244 W/m2
08:59 9.9 °C 5.7 °C 1006 hPa ESE 14.5 km/h 22.5 km/h 75 % 0 mm 241 W/m2
09:04 10.1 °C 5.7 °C 1005.6 hPa ESE 14.5 km/h 24.1 km/h 74 % 0 mm 271 W/m2
09:09 10.2 °C 5.6 °C 1005.6 hPa ESE 14.5 km/h 24.1 km/h 73 % 0 mm 255 W/m2
09:14 10.3 °C 5.7 °C 1005.6 hPa ESE 12.9 km/h 24.1 km/h 73 % 0 mm 301 W/m2
09:15 10.4 °C 5.8 °C 1005.6 hPa ESE 12.9 km/h 24.1 km/h 73 % 0 mm 301 W/m2
09:20 10.6 °C 5.6 °C 1005.3 hPa ESE 12.9 km/h 30.6 km/h 71 % 0 mm 394 W/m2
09:25 10.7 °C 5.4 °C 1005.3 hPa ESE 17.7 km/h 35.4 km/h 70 % 0 mm 461 W/m2
09:30 11.1 °C 6.1 °C 1005.3 hPa ESE 17.7 km/h 35.4 km/h 71 % 0 mm 464 W/m2
09:35 11.4 °C 6.1 °C 1005.3 hPa ESE 12.9 km/h 25.7 km/h 70 % 0 mm 413 W/m2
09:40 11.6 °C 6.1 °C 1005 hPa ESE 12.9 km/h 25.7 km/h 69 % 0 mm 513 W/m2
09:45 11.8 °C 6.1 °C 1005 hPa East 12.9 km/h 29 km/h 68 % 0 mm 512 W/m2
09:50 12.1 °C 6.2 °C 1005 hPa East 12.9 km/h 29 km/h 67 % 0 mm 543 W/m2
09:55 12.3 °C 6.3 °C 1005 hPa East 12.9 km/h 30.6 km/h 67 % 0 mm 580 W/m2
10:00 12.5 °C 6.3 °C 1005 hPa East 12.9 km/h 30.6 km/h 66 % 0 mm 605 W/m2
10:05 12.7 °C 6.5 °C 1005 hPa ESE 12.9 km/h 22.5 km/h 66 % 0 mm 483 W/m2
10:10 12.8 °C 6.4 °C 1004.6 hPa ESE 12.9 km/h 22.5 km/h 65 % 0 mm 640 W/m2
10:15 12.9 °C 6.2 °C 1004.6 hPa East 12.9 km/h 29 km/h 64 % 0 mm 533 W/m2
10:20 12.9 °C 6 °C 1004.6 hPa East 14.5 km/h 29 km/h 63 % 0 mm 441 W/m2
10:25 12.8 °C 6.4 °C 1004.6 hPa ESE 14.5 km/h 24.1 km/h 65 % 0 mm 448 W/m2
10:30 13 °C 6.6 °C 1004.6 hPa ESE 12.9 km/h 22.5 km/h 65 % 0 mm 489 W/m2
10:35 13.2 °C 6.6 °C 1004.3 hPa East 12.9 km/h 22.5 km/h 64 % 0 mm 526 W/m2
10:40 13.3 °C 6.4 °C 1004.3 hPa ESE 14.5 km/h 33.8 km/h 63 % 0 mm 587 W/m2
10:46 13.2 °C 6.3 °C 1004.3 hPa ESE 16.1 km/h 33.8 km/h 63 % 0 mm 578 W/m2
10:51 13.3 °C 6.4 °C 1003.9 hPa ESE 16.1 km/h 33.8 km/h 63 % 0 mm 603 W/m2
10:56 13.5 °C 6.3 °C 1003.9 hPa ESE 16.1 km/h 33.8 km/h 62 % 0 mm 492 W/m2
11:01 13.6 °C 6.4 °C 1003.6 hPa ESE 14.5 km/h 30.6 km/h 62 % 0 mm 403 W/m2
11:06 13.4 °C 6.3 °C 1003.6 hPa ESE 14.5 km/h 30.6 km/h 62 % 0 mm 374 W/m2
11:11 13.3 °C 5.9 °C 1003.6 hPa ESE 17.7 km/h 32.2 km/h 61 % 0 mm 432 W/m2
11:16 13.3 °C 6.2 °C 1003.6 hPa ESE 16.1 km/h 32.2 km/h 62 % 0 mm 483 W/m2
11:21 13.4 °C 6.3 °C 1003.6 hPa ESE 14.5 km/h 29 km/h 62 % 0 mm 408 W/m2
11:26 13.4 °C 6.3 °C 1003.3 hPa ESE 14.5 km/h 25.7 km/h 62 % 0 mm 408 W/m2
11:31 13.5 °C 6.3 °C 1003.3 hPa ESE 14.5 km/h 32.2 km/h 62 % 0 mm 403 W/m2
11:36 13.7 °C 6.3 °C 1003.3 hPa ESE 14.5 km/h 32.2 km/h 61 % 0 mm 418 W/m2
11:41 13.8 °C 6.2 °C 1002.9 hPa ESE 16.1 km/h 29 km/h 60 % 0 mm 561 W/m2
11:46 14.1 °C 6.4 °C 1002.9 hPa ESE 16.1 km/h 29 km/h 60 % 0 mm 452 W/m2
11:51 14.2 °C 6.3 °C 1002.9 hPa ESE 17.7 km/h 33.8 km/h 59 % 0 mm 436 W/m2
11:56 14.3 °C 6.2 °C 1002.9 hPa ESE 17.7 km/h 38.6 km/h 58 % 0 mm 376 W/m2
12:01 14.3 °C 5.9 °C 1002.9 hPa ESE 17.7 km/h 38.6 km/h 57 % 0 mm 316 W/m2
12:06 14.2 °C 6.1 °C 1002.9 hPa ESE 17.7 km/h 33.8 km/h 58 % 0 mm 299 W/m2
12:11 14.3 °C 6.2 °C 1002.9 hPa ESE 16.1 km/h 33.8 km/h 58 % 0 mm 374 W/m2
12:16 14.4 °C 6 °C 1002.6 hPa ESE 16.1 km/h 38.6 km/h 57 % 0 mm 425 W/m2
12:21 14.6 °C 6.2 °C 1002.6 hPa ESE 17.7 km/h 38.6 km/h 57 % 0 mm 452 W/m2
12:26 14.8 °C 5.8 °C 1002.3 hPa ESE 17.7 km/h 38.6 km/h 55 % 0 mm 492 W/m2
12:31 15.1 °C 6.1 °C 1002.3 hPa ESE 19.3 km/h 38.6 km/h 55 % 0 mm 348 W/m2
12:36 15.1 °C 5.3 °C 1002.3 hPa ESE 20.9 km/h 38.6 km/h 52 % 0 mm 533 W/m2
12:41 15.2 °C 5.7 °C 1002.3 hPa ESE 20.9 km/h 38.6 km/h 53 % 0 mm 376 W/m2
12:46 15.2 °C 5.7 °C 1002.3 hPa ESE 19.3 km/h 33.8 km/h 53 % 0 mm 457 W/m2
12:51 15.3 °C 5.5 °C 1002.3 hPa ESE 17.7 km/h 33.8 km/h 52 % 0 mm 148 W/m2
12:56 15.1 °C 5.3 °C 1001.9 hPa ESE 17.7 km/h 35.4 km/h 52 % 0 mm 190 W/m2
13:01 14.9 °C 4.8 °C 1002.3 hPa ESE 19.3 km/h 35.4 km/h 51 % 0 mm 183 W/m2
13:06 14.8 °C 4.4 °C 1001.9 hPa ESE 17.7 km/h 35.4 km/h 50 % 0 mm 193 W/m2
13:11 14.8 °C 3.9 °C 1001.9 hPa ESE 17.7 km/h 33.8 km/h 48 % 0 mm 388 W/m2
13:16 14.9 °C 4.3 °C 1001.6 hPa SE 20.9 km/h 41.8 km/h 49 % 0 mm 378 W/m2
13:21 15.3 °C 4.9 °C 1001.9 hPa SE 19.3 km/h 41.8 km/h 50 % 0 mm 531 W/m2
13:26 15.4 °C 3.8 °C 1001.6 hPa ESE 19.3 km/h 37 km/h 46 % 0 mm 301 W/m2
13:32 15.3 °C 3.7 °C 1001.6 hPa ESE 24.1 km/h 40.2 km/h 46 % 0 mm 348 W/m2
13:37 15.2 °C 3.7 °C 1001.6 hPa ESE 25.7 km/h 40.2 km/h 46 % 0 mm 364 W/m2
13:41 15.3 °C 3.7 °C 1001.2 hPa ESE 24.1 km/h 40.2 km/h 46 % 0 mm 267 W/m2
13:46 15.4 °C 4.1 °C 1001.2 hPa ESE 17.7 km/h 37 km/h 47 % 0 mm 276 W/m2
13:51 15.3 °C 4.1 °C 1001.2 hPa ESE 17.7 km/h 38.6 km/h 47 % 0 mm 288 W/m2
13:57 15.3 °C 4.3 °C 1001.2 hPa ESE 19.3 km/h 38.6 km/h 48 % 0 mm 311 W/m2
14:02 15.3 °C 4.6 °C 1001.2 hPa ESE 19.3 km/h 33.8 km/h 49 % 0 mm 374 W/m2
14:07 15.6 °C 5.5 °C 1001.2 hPa ESE 19.3 km/h 32.2 km/h 51 % 0 mm 360 W/m2
14:12 15.7 °C 5.9 °C 1001.2 hPa ESE 19.3 km/h 30.6 km/h 52 % 0 mm 396 W/m2
14:17 15.8 °C 5.9 °C 1001.2 hPa ESE 19.3 km/h 37 km/h 52 % 0 mm 800 W/m2
14:22 16.1 °C 5.9 °C 1001.2 hPa ESE 19.3 km/h 38.6 km/h 51 % 0 mm 856 W/m2
14:27 16.1 °C 5.9 °C 1001.2 hPa East 17.7 km/h 38.6 km/h 51 % 0 mm 788 W/m2
14:32 16.2 °C 5.8 °C 1001.2 hPa ESE 17.7 km/h 38.6 km/h 50 % 0 mm 390 W/m2
14:37 16 °C 5.3 °C 1001.2 hPa ESE 24.1 km/h 41.8 km/h 49 % 0 mm 689 W/m2
14:42 15.9 °C 5.2 °C 1000.9 hPa ESE 25.7 km/h 43.5 km/h 49 % 0 mm 686 W/m2
14:47 15.9 °C 5.5 °C 1001.2 hPa ESE 24.1 km/h 43.5 km/h 50 % 0 mm 357 W/m2
14:52 15.7 °C 5 °C 1001.2 hPa ESE 24.1 km/h 40.2 km/h 49 % 0 mm 483 W/m2
14:57 15.6 °C 5.2 °C 1000.9 hPa ESE 24.1 km/h 40.2 km/h 50 % 0 mm 390 W/m2
15:02 15.5 °C 5.1 °C 1000.9 hPa ESE 22.5 km/h 38.6 km/h 50 % 0 mm 554 W/m2
15:05 15.5 °C 5.7 °C 1000.9 hPa ESE 22.5 km/h 38.6 km/h 52 % 0 mm 473 W/m2
15:10 15.6 °C 6.1 °C 1000.9 hPa ESE 19.3 km/h 35.4 km/h 53 % 0 mm 309 W/m2
15:15 15.5 °C 6.2 °C 1000.9 hPa ESE 16.1 km/h 30.6 km/h 54 % 0 mm 339 W/m2
15:20 15.4 °C 6.1 °C 1000.9 hPa ESE 16.1 km/h 33.8 km/h 54 % 0 mm 348 W/m2
15:25 15.2 °C 5.9 °C 1000.9 hPa ESE 17.7 km/h 33.8 km/h 54 % 0 mm 457 W/m2
15:30 15.2 °C 5.9 °C 1000.9 hPa ESE 19.3 km/h 37 km/h 54 % 0 mm 418 W/m2
15:35 15.1 °C 6.1 °C 1000.9 hPa ESE 17.7 km/h 37 km/h 55 % 0 mm 438 W/m2
15:40 15.1 °C 6.4 °C 1000.6 hPa ESE 16.1 km/h 30.6 km/h 56 % 0 mm 369 W/m2
15:45 14.9 °C 6.4 °C 1000.9 hPa ESE 17.7 km/h 30.6 km/h 57 % 0 mm 455 W/m2
15:50 14.9 °C 6.4 °C 1000.9 hPa East 16.1 km/h 32.2 km/h 57 % 0 mm 432 W/m2
15:55 14.8 °C 6.8 °C 1000.9 hPa East 17.7 km/h 32.2 km/h 59 % 0 mm 504 W/m2
16:01 14.9 °C 6.9 °C 1000.9 hPa ESE 16.1 km/h 35.4 km/h 59 % 0 mm 557 W/m2
16:06 14.8 °C 6.8 °C 1000.9 hPa East 17.7 km/h 37 km/h 59 % 0 mm 645 W/m2
16:11 15 °C 7.1 °C 1000.6 hPa East 17.7 km/h 37 km/h 59 % 0 mm 455 W/m2
16:16 14.9 °C 7.2 °C 1000.6 hPa ESE 17.7 km/h 33.8 km/h 60 % 0 mm 316 W/m2
16:21 14.8 °C 7.1 °C 1000.6 hPa ESE 16.1 km/h 33.8 km/h 60 % 0 mm 422 W/m2
16:26 14.9 °C 7.2 °C 1000.6 hPa ESE 14.5 km/h 33.8 km/h 60 % 0 mm 475 W/m2
16:31 14.9 °C 7.2 °C 1000.6 hPa ESE 14.5 km/h 29 km/h 60 % 0 mm 248 W/m2
16:36 14.7 °C 6.8 °C 1000.6 hPa ESE 17.7 km/h 40.2 km/h 59 % 0 mm 221 W/m2
16:41 14.5 °C 7.1 °C 1000.6 hPa ESE 17.7 km/h 40.2 km/h 61 % 0 mm 237 W/m2
16:46 14.3 °C 6.9 °C 1000.6 hPa ESE 14.5 km/h 24.1 km/h 61 % 0 mm 225 W/m2
16:51 14.2 °C 7 °C 1000.6 hPa ESE 14.5 km/h 25.7 km/h 62 % 0 mm 236 W/m2
16:56 14.1 °C 7.2 °C 1000.6 hPa ESE 16.1 km/h 29 km/h 63 % 0 mm 248 W/m2
17:01 14.1 °C 7.2 °C 1000.2 hPa ESE 14.5 km/h 29 km/h 63 % 0 mm 207 W/m2
17:06 14.1 °C 7.2 °C 1000.2 hPa ESE 14.5 km/h 29 km/h 63 % 0 mm 165 W/m2
17:11 13.9 °C 6.9 °C 1000.2 hPa East 14.5 km/h 29 km/h 63 % 0 mm 162 W/m2
17:16 13.8 °C 7.1 °C 1000.2 hPa ESE 16.1 km/h 29 km/h 64 % 0 mm 178 W/m2
17:21 13.7 °C 7 °C 1000.2 hPa ESE 14.5 km/h 29 km/h 64 % 0 mm 169 W/m2
17:26 13.7 °C 7.2 °C 1000.2 hPa East 12.9 km/h 29 km/h 65 % 0 mm 135 W/m2
17:31 13.6 °C 7.2 °C 1000.2 hPa East 12.9 km/h 22.5 km/h 65 % 0 mm 135 W/m2
17:36 13.6 °C 7.2 °C 1000.2 hPa East 11.3 km/h 20.9 km/h 65 % 0 mm 137 W/m2
17:41 13.6 °C 7.2 °C 1000.2 hPa East 11.3 km/h 20.9 km/h 65 % 0 mm 137 W/m2
17:46 13.6 °C 7.2 °C 999.9 hPa East 11.3 km/h 25.7 km/h 65 % 0 mm 123 W/m2
17:51 13.6 °C 7.2 °C 1000.2 hPa ESE 11.3 km/h 25.7 km/h 65 % 0 mm 125 W/m2
17:56 13.7 °C 7.4 °C 1000.2 hPa East 9.7 km/h 20.9 km/h 66 % 0 mm 135 W/m2
18:01 13.7 °C 7.2 °C 1000.2 hPa East 11.3 km/h 19.3 km/h 65 % 0 mm 120 W/m2
18:06 13.7 °C 7.2 °C 1000.2 hPa East 11.3 km/h 19.3 km/h 65 % 0 mm 104 W/m2
18:11 13.7 °C 7.2 °C 1000.2 hPa East 9.7 km/h 19.3 km/h 65 % 0 mm 88 W/m2
18:16 13.6 °C 7.2 °C 999.9 hPa East 9.7 km/h 17.7 km/h 65 % 0 mm 97 W/m2
18:21 13.6 °C 7.2 °C 999.9 hPa East 11.3 km/h 22.5 km/h 65 % 0 mm 121 W/m2
18:26 13.5 °C 7.3 °C 999.9 hPa East 11.3 km/h 22.5 km/h 66 % 0 mm 125 W/m2
18:31 13.5 °C 7.3 °C 999.9 hPa East 11.3 km/h 20.9 km/h 66 % 0 mm 111 W/m2
18:36 13.5 °C 7.3 °C 999.9 hPa East 11.3 km/h 20.9 km/h 66 % 0 mm 132 W/m2
18:41 13.5 °C 7.5 °C 999.9 hPa East 9.7 km/h 20.9 km/h 67 % 0 mm 111 W/m2
18:46 13.4 °C 7.4 °C 999.9 hPa East 9.7 km/h 20.9 km/h 67 % 0 mm 98 W/m2
18:51 13.4 °C 7.4 °C 999.9 hPa East 9.7 km/h 16.1 km/h 67 % 0 mm 84 W/m2
18:56 13.4 °C 7.4 °C 1000.2 hPa East 8 km/h 20.9 km/h 67 % 0 mm 83 W/m2
19:01 13.4 °C 7.4 °C 999.9 hPa East 8 km/h 20.9 km/h 67 % 0 mm 81 W/m2
19:06 13.3 °C 7.3 °C 999.9 hPa East 8 km/h 17.7 km/h 67 % 0 mm 81 W/m2
19:11 13.2 °C 7.2 °C 999.9 hPa East 9.7 km/h 17.7 km/h 67 % 0 mm 67 W/m2
19:16 13.2 °C 7.2 °C 1000.2 hPa East 9.7 km/h 17.7 km/h 67 % 0 mm 51 W/m2
19:21 13.1 °C 7.3 °C 1000.2 hPa East 9.7 km/h 17.7 km/h 68 % 0 mm 40 W/m2
19:26 12.9 °C 7.1 °C 1000.2 hPa East 8 km/h 17.7 km/h 68 % 0 mm 35 W/m2
19:31 12.9 °C 7.1 °C 1000.2 hPa East 9.7 km/h 17.7 km/h 68 % 0 mm 35 W/m2
19:33 12.9 °C 7.1 °C 1000.2 hPa East 9.7 km/h 17.7 km/h 68 % 0 mm 35 W/m2
19:38 12.8 °C 7.1 °C 1000.2 hPa East 9.7 km/h 16.1 km/h 68 % 0 mm 30 W/m2
19:43 12.8 °C 7.1 °C 1000.2 hPa East 9.7 km/h 16.1 km/h 68 % 0 mm 28 W/m2
19:48 12.8 °C 7.3 °C 1000.2 hPa East 9.7 km/h 16.1 km/h 69 % 0 mm 25 W/m2
19:53 12.7 °C 7.2 °C 1000.2 hPa East 6.4 km/h 16.1 km/h 69 % 0 mm 18 W/m2
19:58 12.6 °C 7.3 °C 1000.2 hPa East 6.4 km/h 16.1 km/h 70 % 0 mm 14 W/m2
20:03 12.6 °C 7.3 °C 1000.2 hPa East 8 km/h 16.1 km/h 70 % 0 mm 11 W/m2
20:08 12.4 °C 7.3 °C 1000.2 hPa ENE 8 km/h 20.9 km/h 71 % 0 mm 7 W/m2
20:13 12.3 °C 7.2 °C 1000.2 hPa ENE 9.7 km/h 20.9 km/h 71 % 0 mm 5 W/m2
20:18 12.3 °C 7.2 °C 1000.2 hPa ENE 8 km/h 16.1 km/h 71 % 0 mm 0 W/m2
20:23 12.2 °C 7.1 °C 1000.2 hPa ENE 8 km/h 17.7 km/h 71 % 0 mm 0 W/m2
20:24 12.2 °C 7.1 °C 1000.2 hPa ENE 8 km/h 19.3 km/h 71 % 0 mm 0 W/m2
20:29 12.1 °C 7.2 °C 1000.6 hPa East 8 km/h 19.3 km/h 72 % 0 mm 0 W/m2
20:34 12.1 °C 7.2 °C 1000.6 hPa East 8 km/h 16.1 km/h 72 % 0 mm 0 W/m2
20:39 12 °C 7.1 °C 1000.6 hPa East 8 km/h 14.5 km/h 72 % 0 mm 0 W/m2
20:44 11.9 °C 7 °C 1000.6 hPa East 9.7 km/h 19.3 km/h 72 % 0 mm 0 W/m2
20:49 11.9 °C 7.2 °C 1000.6 hPa East 9.7 km/h 19.3 km/h 73 % 0 mm 0 W/m2
20:54 11.8 °C 7.1 °C 1000.6 hPa ENE 9.7 km/h 17.7 km/h 73 % 0 mm 0 W/m2
20:59 11.8 °C 7.1 °C 1000.6 hPa ENE 9.7 km/h 17.7 km/h 73 % 0 mm 0 W/m2
21:04 11.7 °C 7 °C 1000.6 hPa East 9.7 km/h 17.7 km/h 73 % 0 mm 0 W/m2
21:09 11.7 °C 7 °C 1000.6 hPa ENE 9.7 km/h 17.7 km/h 73 % 0 mm 0 W/m2
21:14 11.6 °C 7.1 °C 1000.2 hPa ENE 11.3 km/h 19.3 km/h 74 % 0 mm 0 W/m2
21:19 11.6 °C 7.1 °C 1000.2 hPa ENE 9.7 km/h 19.3 km/h 74 % 0 mm 0 W/m2
21:24 11.5 °C 7 °C 1000.6 hPa ENE 9.7 km/h 16.1 km/h 74 % 0 mm 0 W/m2
21:29 11.4 °C 6.9 °C 1000.2 hPa ENE 9.7 km/h 16.1 km/h 74 % 0 mm 0 W/m2
21:34 11.4 °C 6.9 °C 1000.6 hPa East 9.7 km/h 17.7 km/h 74 % 0 mm 0 W/m2
21:39 11.3 °C 7 °C 1000.6 hPa East 8 km/h 17.7 km/h 75 % 0 mm 0 W/m2
21:40 11.3 °C 7 °C 1000.6 hPa East 6.4 km/h 17.7 km/h 75 % 0 mm 0 W/m2
21:45 11.3 °C 7 °C 1000.6 hPa East 4.8 km/h 14.5 km/h 75 % 0 mm 0 W/m2
21:50 11.3 °C 7 °C 1000.6 hPa East 8 km/h 19.3 km/h 75 % 0 mm 0 W/m2
21:55 11.3 °C 7 °C 1000.6 hPa East 8 km/h 19.3 km/h 75 % 0 mm 0 W/m2
22:00 11.3 °C 7 °C 1000.6 hPa East 6.4 km/h 16.1 km/h 75 % 0 mm 0 W/m2
22:05 11.3 °C 7 °C 1000.6 hPa East 6.4 km/h 16.1 km/h 75 % 0 mm 0 W/m2
22:10 11.2 °C 6.9 °C 1000.6 hPa East 6.4 km/h 16.1 km/h 75 % 0 mm 0 W/m2
22:15 11.2 °C 6.9 °C 1000.6 hPa East 6.4 km/h 12.9 km/h 75 % 0 mm 0 W/m2
22:20 11.2 °C 6.9 °C 1000.6 hPa East 4.8 km/h 12.9 km/h 75 % 0 mm 0 W/m2
22:25 11.1 °C 6.8 °C 1000.6 hPa East 3.2 km/h 12.9 km/h 75 % 0 mm 0 W/m2
22:30 11.1 °C 7 °C 1000.6 hPa East 3.2 km/h 9.7 km/h 76 % 0 mm 0 W/m2
22:35 11.1 °C 7 °C 1000.6 hPa East 3.2 km/h 11.3 km/h 76 % 0 mm 0 W/m2
22:40 11 °C 6.9 °C 1000.6 hPa East 4.8 km/h 11.3 km/h 76 % 0 mm 0 W/m2
22:45 11 °C 6.9 °C 1000.6 hPa East 4.8 km/h 11.3 km/h 76 % 0 mm 0 W/m2
22:50 10.9 °C 6.8 °C 1000.6 hPa East 3.2 km/h 11.3 km/h 76 % 0 mm 0 W/m2
22:55 10.9 °C 6.8 °C 1000.6 hPa East 3.2 km/h 11.3 km/h 76 % 0 mm 0 W/m2
23:00 10.8 °C 6.9 °C 1000.6 hPa East 4.8 km/h 11.3 km/h 77 % 0 mm 0 W/m2
23:05 10.8 °C 6.9 °C 1000.6 hPa East 3.2 km/h 11.3 km/h 77 % 0 mm 0 W/m2
23:10 10.8 °C 6.9 °C 1000.6 hPa ENE 1.6 km/h 11.3 km/h 77 % 0 mm 0 W/m2
23:16 10.7 °C 6.8 °C 1000.6 hPa ENE 1.6 km/h 8 km/h 77 % 0 mm 0 W/m2
23:21 10.7 °C 6.8 °C 1000.6 hPa Calm   3.2 km/h 77 % 0 mm 0 W/m2
23:26 10.6 °C 6.7 °C 1000.6 hPa Calm   6.4 km/h 77 % 0 mm 0 W/m2
23:31 10.6 °C 6.9 °C 1000.9 hPa Calm   6.4 km/h 78 % 0 mm 0 W/m2
23:36 10.5 °C 6.8 °C 1000.9 hPa Calm   3.2 km/h 78 % 0 mm 0 W/m2
23:41 10.5 °C 6.8 °C 1000.9 hPa Calm   8 km/h 78 % 0 mm 0 W/m2
23:46 10.4 °C 6.7 °C 1000.9 hPa ENE 3.2 km/h 9.7 km/h 78 % 0 mm 0 W/m2
23:51 10.4 °C 6.9 °C 1000.6 hPa NE 3.2 km/h 9.7 km/h 79 % 0 mm 0 W/m2
23:56 10.4 °C 6.9 °C 1000.9 hPa NE 3.2 km/h 9.7 km/h 79 % 0 mm 0 W/m2
Delerius-Weather
Compliments of Weather Underground - 2.25 mb

Data updates at regular intervals.